sensor_id;sensor_type;location;lat;lon;timestamp;P1;durP1;ratioP1;P2;durP2;ratioP2
27612;SDS011;15036;48.094;-1.690;2023-03-01T00:01:21;46.92;;;33.05;;
27612;SDS011;15036;48.094;-1.690;2023-03-01T00:03:48;47.25;;;31.50;;
27612;SDS011;15036;48.094;-1.690;2023-03-01T00:06:14;45.13;;;32.72;;
27612;SDS011;15036;48.094;-1.690;2023-03-01T00:08:39;47.50;;;32.45;;
27612;SDS011;15036;48.094;-1.690;2023-03-01T00:13:33;45.53;;;31.73;;
27612;SDS011;15036;48.094;-1.690;2023-03-01T00:16:01;47.70;;;34.10;;
27612;SDS011;15036;48.094;-1.690;2023-03-01T00:18:31;47.65;;;32.78;;
27612;SDS011;15036;48.094;-1.690;2023-03-01T00:20:57;48.85;;;33.25;;
27612;SDS011;15036;48.094;-1.690;2023-03-01T00:23:22;47.50;;;32.17;;
27612;SDS011;15036;48.094;-1.690;2023-03-01T00:25:48;47.35;;;33.83;;
27612;SDS011;15036;48.094;-1.690;2023-03-01T00:28:14;47.58;;;33.30;;
27612;SDS011;15036;48.094;-1.690;2023-03-01T00:30:40;44.58;;;31.90;;
27612;SDS011;15036;48.094;-1.690;2023-03-01T00:33:06;47.97;;;32.95;;
27612;SDS011;15036;48.094;-1.690;2023-03-01T00:35:32;46.42;;;33.22;;
27612;SDS011;15036;48.094;-1.690;2023-03-01T00:37:58;46.55;;;32.55;;
27612;SDS011;15036;48.094;-1.690;2023-03-01T00:40:24;43.42;;;31.50;;
27612;SDS011;15036;48.094;-1.690;2023-03-01T00:42:50;47.10;;;33.05;;
27612;SDS011;15036;48.094;-1.690;2023-03-01T00:45:15;45.85;;;31.85;;
27612;SDS011;15036;48.094;-1.690;2023-03-01T00:47:41;45.58;;;31.70;;
27612;SDS011;15036;48.094;-1.690;2023-03-01T00:50:07;45.58;;;32.50;;
27612;SDS011;15036;48.094;-1.690;2023-03-01T00:52:33;45.42;;;32.13;;
27612;SDS011;15036;48.094;-1.690;2023-03-01T00:54:59;45.60;;;32.05;;
27612;SDS011;15036;48.094;-1.690;2023-03-01T00:57:25;47.72;;;32.17;;
27612;SDS011;15036;48.094;-1.690;2023-03-01T00:59:50;41.60;;;30.35;;
27612;SDS011;15036;48.094;-1.690;2023-03-01T01:02:17;52.00;;;33.92;;
27612;SDS011;15036;48.094;-1.690;2023-03-01T01:04:43;46.20;;;32.92;;
27612;SDS011;15036;48.094;-1.690;2023-03-01T01:07:08;46.20;;;31.75;;
27612;SDS011;15036;48.094;-1.690;2023-03-01T01:09:34;45.85;;;32.40;;
27612;SDS011;15036;48.094;-1.690;2023-03-01T01:12:00;45.10;;;32.75;;
27612;SDS011;15036;48.094;-1.690;2023-03-01T01:14:25;45.15;;;33.08;;
27612;SDS011;15036;48.094;-1.690;2023-03-01T01:16:50;45.00;;;32.17;;
27612;SDS011;15036;48.094;-1.690;2023-03-01T01:19:16;41.95;;;31.48;;
27612;SDS011;15036;48.094;-1.690;2023-03-01T01:21:41;43.78;;;31.35;;
27612;SDS011;15036;48.094;-1.690;2023-03-01T01:24:10;43.83;;;32.55;;
27612;SDS011;15036;48.094;-1.690;2023-03-01T01:26:36;45.78;;;32.42;;
27612;SDS011;15036;48.094;-1.690;2023-03-01T01:29:02;44.42;;;31.90;;
27612;SDS011;15036;48.094;-1.690;2023-03-01T01:31:29;45.72;;;33.03;;
27612;SDS011;15036;48.094;-1.690;2023-03-01T01:33:55;46.33;;;32.72;;
27612;SDS011;15036;48.094;-1.690;2023-03-01T01:36:22;45.75;;;32.47;;
27612;SDS011;15036;48.094;-1.690;2023-03-01T01:38:48;44.45;;;30.95;;
27612;SDS011;15036;48.094;-1.690;2023-03-01T01:41:14;47.50;;;32.65;;
27612;SDS011;15036;48.094;-1.690;2023-03-01T01:43:47;45.15;;;32.50;;
27612;SDS011;15036;48.094;-1.690;2023-03-01T01:46:33;46.22;;;32.67;;
27612;SDS011;15036;48.094;-1.690;2023-03-01T01:49:05;49.25;;;32.55;;
27612;SDS011;15036;48.094;-1.690;2023-03-01T01:51:38;44.92;;;31.55;;
27612;SDS011;15036;48.094;-1.690;2023-03-01T01:54:21;47.03;;;32.83;;
27612;SDS011;15036;48.094;-1.690;2023-03-01T01:56:53;42.85;;;29.75;;
27612;SDS011;15036;48.094;-1.690;2023-03-01T01:59:22;45.97;;;32.58;;
27612;SDS011;15036;48.094;-1.690;2023-03-01T02:01:51;45.42;;;32.08;;
27612;SDS011;15036;48.094;-1.690;2023-03-01T02:04:17;43.08;;;30.40;;
27612;SDS011;15036;48.094;-1.690;2023-03-01T02:07:06;44.95;;;31.05;;
27612;SDS011;15036;48.094;-1.690;2023-03-01T02:09:34;42.08;;;28.75;;
27612;SDS011;15036;48.094;-1.690;2023-03-01T02:12:01;42.08;;;29.25;;
27612;SDS011;15036;48.094;-1.690;2023-03-01T02:14:29;39.30;;;29.25;;
27612;SDS011;15036;48.094;-1.690;2023-03-01T02:16:54;38.38;;;28.40;;
27612;SDS011;15036;48.094;-1.690;2023-03-01T02:19:26;37.38;;;27.55;;
27612;SDS011;15036;48.094;-1.690;2023-03-01T02:27:20;33.90;;;24.75;;
27612;SDS011;15036;48.094;-1.690;2023-03-01T02:29:50;35.10;;;25.30;;
27612;SDS011;15036;48.094;-1.690;2023-03-01T02:32:15;33.55;;;25.35;;
27612;SDS011;15036;48.094;-1.690;2023-03-01T02:34:50;33.60;;;24.55;;
27612;SDS011;15036;48.094;-1.690;2023-03-01T02:37:17;32.47;;;23.75;;
27612;SDS011;15036;48.094;-1.690;2023-03-01T02:39:50;30.35;;;22.95;;
27612;SDS011;15036;48.094;-1.690;2023-03-01T02:42:31;31.90;;;23.25;;
27612;SDS011;15036;48.094;-1.690;2023-03-01T02:44:58;29.00;;;22.35;;
27612;SDS011;15036;48.094;-1.690;2023-03-01T02:47:24;28.67;;;22.23;;
27612;SDS011;15036;48.094;-1.690;2023-03-01T02:49:49;27.30;;;21.08;;
27612;SDS011;15036;48.094;-1.690;2023-03-01T02:52:34;32.28;;;22.25;;
27612;SDS011;15036;48.094;-1.690;2023-03-01T02:55:11;29.42;;;21.65;;
27612;SDS011;15036;48.094;-1.690;2023-03-01T02:57:39;27.17;;;20.83;;
27612;SDS011;15036;48.094;-1.690;2023-03-01T03:00:09;28.40;;;21.30;;
27612;SDS011;15036;48.094;-1.690;2023-03-01T03:02:44;26.90;;;21.27;;
27612;SDS011;15036;48.094;-1.690;2023-03-01T03:05:19;25.25;;;20.42;;
27612;SDS011;15036;48.094;-1.690;2023-03-01T03:07:47;25.75;;;19.65;;
27612;SDS011;15036;48.094;-1.690;2023-03-01T03:10:14;26.40;;;20.02;;
27612;SDS011;15036;48.094;-1.690;2023-03-01T03:12:44;24.92;;;19.65;;
27612;SDS011;15036;48.094;-1.690;2023-03-01T03:15:14;24.92;;;19.17;;
27612;SDS011;15036;48.094;-1.690;2023-03-01T03:17:40;29.00;;;18.75;;
27612;SDS011;15036;48.094;-1.690;2023-03-01T03:20:07;25.88;;;19.75;;
27612;SDS011;15036;48.094;-1.690;2023-03-01T03:22:39;23.47;;;18.33;;
27612;SDS011;15036;48.094;-1.690;2023-03-01T03:25:06;24.55;;;18.55;;
27612;SDS011;15036;48.094;-1.690;2023-03-01T03:27:39;23.60;;;18.33;;
27612;SDS011;15036;48.094;-1.690;2023-03-01T03:30:07;23.40;;;18.05;;
27612;SDS011;15036;48.094;-1.690;2023-03-01T03:32:36;24.15;;;18.58;;
27612;SDS011;15036;48.094;-1.690;2023-03-01T03:35:02;24.42;;;18.67;;
27612;SDS011;15036;48.094;-1.690;2023-03-01T03:37:38;25.13;;;19.00;;
27612;SDS011;15036;48.094;-1.690;2023-03-01T03:40:23;25.50;;;18.60;;
27612;SDS011;15036;48.094;-1.690;2023-03-01T03:42:49;25.33;;;19.05;;
27612;SDS011;15036;48.094;-1.690;2023-03-01T03:45:15;25.80;;;19.23;;
27612;SDS011;15036;48.094;-1.690;2023-03-01T03:47:41;27.80;;;19.85;;
27612;SDS011;15036;48.094;-1.690;2023-03-01T03:50:07;24.77;;;19.15;;
27612;SDS011;15036;48.094;-1.690;2023-03-01T03:52:34;28.10;;;19.35;;
27612;SDS011;15036;48.094;-1.690;2023-03-01T03:54:59;25.90;;;19.65;;
27612;SDS011;15036;48.094;-1.690;2023-03-01T03:57:24;27.65;;;21.05;;
27612;SDS011;15036;48.094;-1.690;2023-03-01T03:59:50;28.88;;;20.88;;
27612;SDS011;15036;48.094;-1.690;2023-03-01T04:02:15;29.08;;;20.38;;
27612;SDS011;15036;48.094;-1.690;2023-03-01T04:04:47;26.88;;;20.52;;
27612;SDS011;15036;48.094;-1.690;2023-03-01T04:07:15;27.05;;;20.35;;
27612;SDS011;15036;48.094;-1.690;2023-03-01T04:09:42;27.85;;;20.90;;
27612;SDS011;15036;48.094;-1.690;2023-03-01T04:12:08;29.15;;;21.42;;
27612;SDS011;15036;48.094;-1.690;2023-03-01T04:14:33;27.02;;;20.83;;
27612;SDS011;15036;48.094;-1.690;2023-03-01T04:16:59;28.23;;;21.60;;
27612;SDS011;15036;48.094;-1.690;2023-03-01T04:19:24;27.70;;;21.50;;
27612;SDS011;15036;48.094;-1.690;2023-03-01T04:21:49;29.30;;;21.27;;
27612;SDS011;15036;48.094;-1.690;2023-03-01T04:24:15;29.02;;;22.08;;
27612;SDS011;15036;48.094;-1.690;2023-03-01T04:26:41;28.60;;;21.58;;
27612;SDS011;15036;48.094;-1.690;2023-03-01T04:29:06;27.98;;;22.00;;
27612;SDS011;15036;48.094;-1.690;2023-03-01T04:31:32;28.63;;;21.00;;
27612;SDS011;15036;48.094;-1.690;2023-03-01T04:33:57;25.63;;;19.80;;
27612;SDS011;15036;48.094;-1.690;2023-03-01T04:36:24;26.77;;;20.23;;
27612;SDS011;15036;48.094;-1.690;2023-03-01T04:38:50;28.80;;;20.38;;
27612;SDS011;15036;48.094;-1.690;2023-03-01T04:41:17;26.70;;;19.10;;
27612;SDS011;15036;48.094;-1.690;2023-03-01T04:43:44;27.50;;;20.05;;
27612;SDS011;15036;48.094;-1.690;2023-03-01T04:46:13;24.85;;;19.15;;
27612;SDS011;15036;48.094;-1.690;2023-03-01T04:51:06;26.70;;;19.20;;
27612;SDS011;15036;48.094;-1.690;2023-03-01T04:53:33;26.77;;;19.23;;
27612;SDS011;15036;48.094;-1.690;2023-03-01T04:56:01;25.45;;;18.70;;
27612;SDS011;15036;48.094;-1.690;2023-03-01T04:58:26;25.27;;;18.92;;
27612;SDS011;15036;48.094;-1.690;2023-03-01T05:00:53;26.52;;;19.20;;
27612;SDS011;15036;48.094;-1.690;2023-03-01T05:03:19;25.45;;;19.17;;
27612;SDS011;15036;48.094;-1.690;2023-03-01T05:05:46;25.42;;;19.17;;
27612;SDS011;15036;48.094;-1.690;2023-03-01T05:08:13;28.80;;;19.40;;
27612;SDS011;15036;48.094;-1.690;2023-03-01T05:10:43;25.77;;;18.90;;
27612;SDS011;15036;48.094;-1.690;2023-03-01T05:13:11;28.27;;;20.02;;
27612;SDS011;15036;48.094;-1.690;2023-03-01T05:15:38;25.13;;;19.40;;
27612;SDS011;15036;48.094;-1.690;2023-03-01T05:18:04;26.63;;;19.77;;
27612;SDS011;15036;48.094;-1.690;2023-03-01T05:20:36;28.30;;;18.83;;
27612;SDS011;15036;48.094;-1.690;2023-03-01T05:23:02;25.60;;;19.08;;
27612;SDS011;15036;48.094;-1.690;2023-03-01T05:25:30;27.15;;;19.02;;
27612;SDS011;15036;48.094;-1.690;2023-03-01T05:27:58;24.88;;;18.15;;
27612;SDS011;15036;48.094;-1.690;2023-03-01T05:30:24;25.45;;;19.45;;
27612;SDS011;15036;48.094;-1.690;2023-03-01T05:32:49;26.63;;;19.73;;
27612;SDS011;15036;48.094;-1.690;2023-03-01T05:35:20;24.98;;;19.08;;
27612;SDS011;15036;48.094;-1.690;2023-03-01T05:37:47;24.52;;;17.95;;
27612;SDS011;15036;48.094;-1.690;2023-03-01T05:40:14;24.60;;;18.65;;
27612;SDS011;15036;48.094;-1.690;2023-03-01T05:42:42;23.80;;;17.30;;
27612;SDS011;15036;48.094;-1.690;2023-03-01T05:45:09;25.52;;;19.00;;
27612;SDS011;15036;48.094;-1.690;2023-03-01T05:47:34;25.00;;;18.77;;
27612;SDS011;15036;48.094;-1.690;2023-03-01T05:50:00;25.48;;;19.23;;
27612;SDS011;15036;48.094;-1.690;2023-03-01T05:52:26;24.48;;;18.75;;
27612;SDS011;15036;48.094;-1.690;2023-03-01T05:54:51;26.08;;;19.05;;
27612;SDS011;15036;48.094;-1.690;2023-03-01T05:57:17;26.25;;;18.80;;
27612;SDS011;15036;48.094;-1.690;2023-03-01T05:59:42;27.25;;;20.33;;
27612;SDS011;15036;48.094;-1.690;2023-03-01T06:02:07;24.42;;;18.42;;
27612;SDS011;15036;48.094;-1.690;2023-03-01T06:04:33;25.52;;;18.60;;
27612;SDS011;15036;48.094;-1.690;2023-03-01T06:06:58;25.27;;;19.17;;
27612;SDS011;15036;48.094;-1.690;2023-03-01T06:09:23;26.52;;;18.42;;
27612;SDS011;15036;48.094;-1.690;2023-03-01T06:11:51;26.38;;;19.88;;
27612;SDS011;15036;48.094;-1.690;2023-03-01T06:14:16;25.38;;;18.40;;
27612;SDS011;15036;48.094;-1.690;2023-03-01T06:16:41;25.00;;;18.08;;
27612;SDS011;15036;48.094;-1.690;2023-03-01T06:19:07;24.75;;;19.05;;
27612;SDS011;15036;48.094;-1.690;2023-03-01T06:21:32;24.80;;;18.25;;
27612;SDS011;15036;48.094;-1.690;2023-03-01T06:23:57;23.30;;;18.20;;
27612;SDS011;15036;48.094;-1.690;2023-03-01T06:26:23;27.88;;;18.30;;
27612;SDS011;15036;48.094;-1.690;2023-03-01T06:28:48;24.55;;;18.17;;
27612;SDS011;15036;48.094;-1.690;2023-03-01T06:31:14;25.02;;;18.17;;
27612;SDS011;15036;48.094;-1.690;2023-03-01T06:33:39;25.50;;;18.45;;
27612;SDS011;15036;48.094;-1.690;2023-03-01T06:36:05;24.65;;;17.95;;
27612;SDS011;15036;48.094;-1.690;2023-03-01T06:38:30;26.15;;;17.95;;
27612;SDS011;15036;48.094;-1.690;2023-03-01T06:40:56;23.23;;;18.40;;
27612;SDS011;15036;48.094;-1.690;2023-03-01T06:43:21;24.67;;;17.65;;
27612;SDS011;15036;48.094;-1.690;2023-03-01T06:45:48;24.80;;;17.55;;
27612;SDS011;15036;48.094;-1.690;2023-03-01T06:48:14;22.48;;;17.17;;
27612;SDS011;15036;48.094;-1.690;2023-03-01T06:50:39;25.23;;;17.52;;
27612;SDS011;15036;48.094;-1.690;2023-03-01T06:53:04;24.35;;;17.83;;
27612;SDS011;15036;48.094;-1.690;2023-03-01T06:55:30;24.17;;;17.17;;
27612;SDS011;15036;48.094;-1.690;2023-03-01T06:57:57;27.00;;;18.83;;
27612;SDS011;15036;48.094;-1.690;2023-03-01T07:00:23;23.40;;;17.20;;
27612;SDS011;15036;48.094;-1.690;2023-03-01T07:02:49;22.95;;;17.38;;
27612;SDS011;15036;48.094;-1.690;2023-03-01T07:05:15;24.00;;;16.38;;
27612;SDS011;15036;48.094;-1.690;2023-03-01T07:07:40;22.92;;;16.58;;
27612;SDS011;15036;48.094;-1.690;2023-03-01T07:10:06;24.30;;;17.35;;
27612;SDS011;15036;48.094;-1.690;2023-03-01T07:12:32;25.90;;;17.98;;
27612;SDS011;15036;48.094;-1.690;2023-03-01T07:14:58;24.45;;;17.63;;
27612;SDS011;15036;48.094;-1.690;2023-03-01T07:17:23;22.02;;;16.75;;
27612;SDS011;15036;48.094;-1.690;2023-03-01T07:19:48;22.85;;;17.30;;
27612;SDS011;15036;48.094;-1.690;2023-03-01T07:22:14;22.88;;;17.40;;
27612;SDS011;15036;48.094;-1.690;2023-03-01T07:24:40;23.42;;;17.30;;
27612;SDS011;15036;48.094;-1.690;2023-03-01T07:27:06;23.92;;;16.83;;
27612;SDS011;15036;48.094;-1.690;2023-03-01T07:29:31;24.10;;;17.23;;
27612;SDS011;15036;48.094;-1.690;2023-03-01T07:31:57;24.17;;;17.42;;
27612;SDS011;15036;48.094;-1.690;2023-03-01T07:34:23;22.02;;;16.50;;
27612;SDS011;15036;48.094;-1.690;2023-03-01T07:36:48;24.08;;;17.33;;
27612;SDS011;15036;48.094;-1.690;2023-03-01T07:39:14;21.77;;;16.08;;
27612;SDS011;15036;48.094;-1.690;2023-03-01T07:41:39;22.92;;;16.80;;
27612;SDS011;15036;48.094;-1.690;2023-03-01T07:44:05;26.33;;;16.98;;
27612;SDS011;15036;48.094;-1.690;2023-03-01T07:46:30;24.70;;;16.88;;
27612;SDS011;15036;48.094;-1.690;2023-03-01T07:48:56;26.10;;;16.85;;
27612;SDS011;15036;48.094;-1.690;2023-03-01T07:51:22;22.33;;;16.60;;
27612;SDS011;15036;48.094;-1.690;2023-03-01T07:53:48;22.73;;;15.77;;
27612;SDS011;15036;48.094;-1.690;2023-03-01T07:56:14;25.23;;;17.45;;
27612;SDS011;15036;48.094;-1.690;2023-03-01T07:58:42;23.70;;;15.73;;
27612;SDS011;15036;48.094;-1.690;2023-03-01T08:01:11;24.08;;;16.45;;
27612;SDS011;15036;48.094;-1.690;2023-03-01T08:03:38;21.13;;;15.65;;
27612;SDS011;15036;48.094;-1.690;2023-03-01T08:06:06;23.15;;;15.95;;
27612;SDS011;15036;48.094;-1.690;2023-03-01T08:08:34;21.67;;;15.43;;
27612;SDS011;15036;48.094;-1.690;2023-03-01T08:11:00;23.33;;;16.00;;
27612;SDS011;15036;48.094;-1.690;2023-03-01T08:13:28;21.17;;;15.27;;
27612;SDS011;15036;48.094;-1.690;2023-03-01T08:15:54;21.17;;;15.02;;
27612;SDS011;15036;48.094;-1.690;2023-03-01T08:18:19;22.33;;;15.55;;
27612;SDS011;15036;48.094;-1.690;2023-03-01T08:20:46;20.73;;;14.93;;
27612;SDS011;15036;48.094;-1.690;2023-03-01T08:23:12;20.13;;;15.40;;
27612;SDS011;15036;48.094;-1.690;2023-03-01T08:25:37;23.38;;;15.25;;
27612;SDS011;15036;48.094;-1.690;2023-03-01T08:28:03;20.77;;;15.00;;
27612;SDS011;15036;48.094;-1.690;2023-03-01T08:30:29;22.38;;;15.75;;
27612;SDS011;15036;48.094;-1.690;2023-03-01T08:32:55;20.77;;;14.88;;
27612;SDS011;15036;48.094;-1.690;2023-03-01T08:35:20;23.90;;;15.02;;
27612;SDS011;15036;48.094;-1.690;2023-03-01T08:37:46;22.23;;;15.10;;
27612;SDS011;15036;48.094;-1.690;2023-03-01T08:40:12;21.80;;;15.38;;
27612;SDS011;15036;48.094;-1.690;2023-03-01T08:42:38;20.45;;;15.68;;
27612;SDS011;15036;48.094;-1.690;2023-03-01T08:45:04;19.52;;;14.25;;
27612;SDS011;15036;48.094;-1.690;2023-03-01T08:47:30;20.35;;;14.60;;
27612;SDS011;15036;48.094;-1.690;2023-03-01T08:49:58;19.42;;;14.18;;
27612;SDS011;15036;48.094;-1.690;2023-03-01T08:52:24;21.05;;;14.38;;
27612;SDS011;15036;48.094;-1.690;2023-03-01T08:54:49;19.88;;;14.23;;
27612;SDS011;15036;48.094;-1.690;2023-03-01T08:57:15;20.10;;;14.50;;
27612;SDS011;15036;48.094;-1.690;2023-03-01T08:59:40;20.80;;;14.63;;
27612;SDS011;15036;48.094;-1.690;2023-03-01T09:02:10;19.30;;;13.52;;
27612;SDS011;15036;48.094;-1.690;2023-03-01T09:04:38;20.67;;;14.23;;
27612;SDS011;15036;48.094;-1.690;2023-03-01T09:07:04;18.77;;;13.63;;
27612;SDS011;15036;48.094;-1.690;2023-03-01T09:09:29;18.90;;;13.68;;
27612;SDS011;15036;48.094;-1.690;2023-03-01T09:11:55;22.58;;;15.00;;
27612;SDS011;15036;48.094;-1.690;2023-03-01T09:14:20;18.20;;;13.35;;
27612;SDS011;15036;48.094;-1.690;2023-03-01T09:16:45;20.38;;;13.85;;
27612;SDS011;15036;48.094;-1.690;2023-03-01T09:19:11;18.70;;;13.45;;
27612;SDS011;15036;48.094;-1.690;2023-03-01T09:21:37;18.50;;;14.02;;
27612;SDS011;15036;48.094;-1.690;2023-03-01T09:24:03;20.27;;;13.95;;
27612;SDS011;15036;48.094;-1.690;2023-03-01T09:26:28;18.45;;;13.50;;
27612;SDS011;15036;48.094;-1.690;2023-03-01T09:28:54;17.70;;;13.07;;
27612;SDS011;15036;48.094;-1.690;2023-03-01T09:31:21;22.17;;;13.65;;
27612;SDS011;15036;48.094;-1.690;2023-03-01T09:33:48;17.67;;;13.30;;
27612;SDS011;15036;48.094;-1.690;2023-03-01T09:36:16;17.63;;;13.15;;
27612;SDS011;15036;48.094;-1.690;2023-03-01T09:38:44;18.90;;;14.20;;
27612;SDS011;15036;48.094;-1.690;2023-03-01T09:46:46;18.25;;;12.48;;
27612;SDS011;15036;48.094;-1.690;2023-03-01T09:49:17;20.65;;;13.55;;
27612;SDS011;15036;48.094;-1.690;2023-03-01T09:51:52;20.27;;;13.75;;
27612;SDS011;15036;48.094;-1.690;2023-03-01T09:54:20;19.80;;;13.50;;
27612;SDS011;15036;48.094;-1.690;2023-03-01T09:56:52;17.92;;;12.43;;
27612;SDS011;15036;48.094;-1.690;2023-03-01T09:59:33;21.80;;;13.45;;
27612;SDS011;15036;48.094;-1.690;2023-03-01T10:02:14;20.35;;;13.52;;
27612;SDS011;15036;48.094;-1.690;2023-03-01T10:04:49;18.42;;;13.13;;
27612;SDS011;15036;48.094;-1.690;2023-03-01T10:09:59;21.77;;;15.40;;
27612;SDS011;15036;48.094;-1.690;2023-03-01T10:12:33;20.58;;;13.90;;
27612;SDS011;15036;48.094;-1.690;2023-03-01T10:17:36;21.00;;;14.07;;
27612;SDS011;15036;48.094;-1.690;2023-03-01T10:22:43;18.48;;;13.75;;
27612;SDS011;15036;48.094;-1.690;2023-03-01T10:25:14;20.42;;;13.90;;
27612;SDS011;15036;48.094;-1.690;2023-03-01T10:27:49;20.25;;;14.32;;
27612;SDS011;15036;48.094;-1.690;2023-03-01T10:30:21;18.98;;;13.35;;
27612;SDS011;15036;48.094;-1.690;2023-03-01T10:32:54;21.60;;;14.95;;
27612;SDS011;15036;48.094;-1.690;2023-03-01T10:35:22;23.52;;;14.75;;
27612;SDS011;15036;48.094;-1.690;2023-03-01T10:40:32;21.25;;;14.15;;
27612;SDS011;15036;48.094;-1.690;2023-03-01T10:42:59;22.52;;;14.13;;
27612;SDS011;15036;48.094;-1.690;2023-03-01T10:45:36;20.42;;;14.68;;
27612;SDS011;15036;48.094;-1.690;2023-03-01T10:50:38;21.98;;;14.88;;
27612;SDS011;15036;48.094;-1.690;2023-03-01T10:53:10;19.33;;;14.10;;
27612;SDS011;15036;48.094;-1.690;2023-03-01T10:56:27;20.42;;;15.25;;
27612;SDS011;15036;48.094;-1.690;2023-03-01T10:59:01;23.00;;;15.43;;
27612;SDS011;15036;48.094;-1.690;2023-03-01T11:01:30;21.70;;;15.80;;
27612;SDS011;15036;48.094;-1.690;2023-03-01T11:06:36;20.58;;;14.80;;
27612;SDS011;15036;48.094;-1.690;2023-03-01T11:09:15;22.15;;;17.08;;
27612;SDS011;15036;48.094;-1.690;2023-03-01T11:11:54;23.60;;;16.77;;
27612;SDS011;15036;48.094;-1.690;2023-03-01T11:14:22;21.60;;;16.33;;
27612;SDS011;15036;48.094;-1.690;2023-03-01T11:16:58;22.92;;;17.75;;
27612;SDS011;15036;48.094;-1.690;2023-03-01T11:19:59;25.08;;;17.05;;
27612;SDS011;15036;48.094;-1.690;2023-03-01T11:22:31;24.00;;;16.83;;
27612;SDS011;15036;48.094;-1.690;2023-03-01T11:24:59;22.85;;;17.40;;
27612;SDS011;15036;48.094;-1.690;2023-03-01T11:27:28;21.05;;;15.68;;
27612;SDS011;15036;48.094;-1.690;2023-03-01T11:30:00;25.05;;;17.65;;
27612;SDS011;15036;48.094;-1.690;2023-03-01T11:35:15;21.70;;;16.35;;
27612;SDS011;15036;48.094;-1.690;2023-03-01T11:40:49;24.55;;;17.67;;
27612;SDS011;15036;48.094;-1.690;2023-03-01T11:43:22;24.52;;;17.80;;
27612;SDS011;15036;48.094;-1.690;2023-03-01T11:52:05;23.25;;;18.17;;
27612;SDS011;15036;48.094;-1.690;2023-03-01T12:09:00;19.02;;;14.68;;
27612;SDS011;15036;48.094;-1.690;2023-03-01T12:17:28;21.48;;;15.80;;
27612;SDS011;15036;48.094;-1.690;2023-03-01T12:20:36;21.38;;;15.45;;
27612;SDS011;15036;48.094;-1.690;2023-03-01T12:31:44;19.95;;;15.20;;
27612;SDS011;15036;48.094;-1.690;2023-03-01T12:37:13;18.50;;;15.48;;
27612;SDS011;15036;48.094;-1.690;2023-03-01T12:50:37;16.63;;;13.85;;
27612;SDS011;15036;48.094;-1.690;2023-03-01T12:53:07;19.23;;;13.25;;
27612;SDS011;15036;48.094;-1.690;2023-03-01T13:01:19;14.80;;;11.50;;
27612;SDS011;15036;48.094;-1.690;2023-03-01T13:11:50;12.40;;;10.02;;
27612;SDS011;15036;48.094;-1.690;2023-03-01T13:16:53;12.20;;;9.82;;
27612;SDS011;15036;48.094;-1.690;2023-03-01T13:19:20;12.68;;;9.88;;
27612;SDS011;15036;48.094;-1.690;2023-03-01T13:21:48;12.32;;;9.25;;
27612;SDS011;15036;48.094;-1.690;2023-03-01T13:24:25;10.63;;;9.15;;
27612;SDS011;15036;48.094;-1.690;2023-03-01T13:37:36;8.93;;;7.63;;
27612;SDS011;15036;48.094;-1.690;2023-03-01T13:40:57;9.57;;;7.65;;
27612;SDS011;15036;48.094;-1.690;2023-03-01T13:42:48;9.65;;;7.63;;
27612;SDS011;15036;48.094;-1.690;2023-03-01T13:45:18;10.35;;;7.85;;
27612;SDS011;15036;48.094;-1.690;2023-03-01T13:47:48;10.05;;;8.13;;
27612;SDS011;15036;48.094;-1.690;2023-03-01T13:50:21;9.43;;;7.70;;
27612;SDS011;15036;48.094;-1.690;2023-03-01T13:53:23;11.07;;;8.00;;
27612;SDS011;15036;48.094;-1.690;2023-03-01T13:55:44;8.98;;;7.60;;
27612;SDS011;15036;48.094;-1.690;2023-03-01T14:00:44;11.63;;;7.88;;
27612;SDS011;15036;48.094;-1.690;2023-03-01T14:03:16;10.18;;;7.88;;
27612;SDS011;15036;48.094;-1.690;2023-03-01T14:06:06;9.85;;;7.57;;
27612;SDS011;15036;48.094;-1.690;2023-03-01T14:08:50;9.43;;;7.30;;
27612;SDS011;15036;48.094;-1.690;2023-03-01T14:19:06;9.07;;;7.07;;
27612;SDS011;15036;48.094;-1.690;2023-03-01T14:21:33;10.07;;;7.22;;
27612;SDS011;15036;48.094;-1.690;2023-03-01T14:24:01;8.75;;;6.72;;
27612;SDS011;15036;48.094;-1.690;2023-03-01T14:26:27;8.98;;;6.90;;
27612;SDS011;15036;48.094;-1.690;2023-03-01T14:28:52;10.27;;;7.45;;
27612;SDS011;15036;48.094;-1.690;2023-03-01T14:31:39;9.68;;;7.60;;
27612;SDS011;15036;48.094;-1.690;2023-03-01T14:34:16;8.80;;;7.00;;
27612;SDS011;15036;48.094;-1.690;2023-03-01T14:36:44;9.70;;;6.70;;
27612;SDS011;15036;48.094;-1.690;2023-03-01T14:39:16;7.82;;;6.72;;
27612;SDS011;15036;48.094;-1.690;2023-03-01T14:41:48;10.48;;;7.80;;
27612;SDS011;15036;48.094;-1.690;2023-03-01T14:44:19;10.18;;;7.38;;
27612;SDS011;15036;48.094;-1.690;2023-03-01T14:46:51;9.93;;;7.95;;
27612;SDS011;15036;48.094;-1.690;2023-03-01T14:49:20;12.20;;;7.68;;
27612;SDS011;15036;48.094;-1.690;2023-03-01T14:52:05;9.50;;;8.25;;
27612;SDS011;15036;48.094;-1.690;2023-03-01T14:57:14;16.55;;;9.40;;
27612;SDS011;15036;48.094;-1.690;2023-03-01T14:59:41;10.88;;;9.35;;
27612;SDS011;15036;48.094;-1.690;2023-03-01T15:02:08;11.63;;;9.73;;
27612;SDS011;15036;48.094;-1.690;2023-03-01T15:04:42;12.07;;;9.25;;
27612;SDS011;15036;48.094;-1.690;2023-03-01T15:07:11;13.25;;;9.75;;
27612;SDS011;15036;48.094;-1.690;2023-03-01T15:09:38;13.90;;;10.50;;
27612;SDS011;15036;48.094;-1.690;2023-03-01T15:12:25;12.93;;;10.18;;
27612;SDS011;15036;48.094;-1.690;2023-03-01T15:14:59;13.52;;;10.60;;
27612;SDS011;15036;48.094;-1.690;2023-03-01T15:20:01;12.52;;;9.80;;
27612;SDS011;15036;48.094;-1.690;2023-03-01T15:22:29;12.02;;;10.18;;
27612;SDS011;15036;48.094;-1.690;2023-03-01T15:24:55;13.70;;;10.32;;
27612;SDS011;15036;48.094;-1.690;2023-03-01T15:27:21;12.13;;;10.82;;
27612;SDS011;15036;48.094;-1.690;2023-03-01T15:29:53;12.63;;;10.95;;
27612;SDS011;15036;48.094;-1.690;2023-03-01T15:32:31;12.80;;;10.88;;
27612;SDS011;15036;48.094;-1.690;2023-03-01T15:35:00;17.98;;;11.93;;
27612;SDS011;15036;48.094;-1.690;2023-03-01T15:37:46;14.85;;;11.75;;
27612;SDS011;15036;48.094;-1.690;2023-03-01T15:40:26;15.20;;;12.18;;
27612;SDS011;15036;48.094;-1.690;2023-03-01T15:42:57;14.23;;;11.82;;
27612;SDS011;15036;48.094;-1.690;2023-03-01T15:45:27;15.57;;;12.02;;
27612;SDS011;15036;48.094;-1.690;2023-03-01T15:47:58;14.57;;;11.68;;
27612;SDS011;15036;48.094;-1.690;2023-03-01T15:50:30;15.40;;;12.65;;
27612;SDS011;15036;48.094;-1.690;2023-03-01T15:53:01;16.08;;;12.48;;
27612;SDS011;15036;48.094;-1.690;2023-03-01T15:55:32;16.27;;;13.00;;
27612;SDS011;15036;48.094;-1.690;2023-03-01T16:00:27;19.77;;;14.45;;
27612;SDS011;15036;48.094;-1.690;2023-03-01T16:02:54;19.55;;;14.48;;
27612;SDS011;15036;48.094;-1.690;2023-03-01T16:05:24;16.63;;;14.80;;
27612;SDS011;15036;48.094;-1.690;2023-03-01T16:07:52;21.65;;;16.45;;
27612;SDS011;15036;48.094;-1.690;2023-03-01T16:10:18;17.33;;;15.10;;
27612;SDS011;15036;48.094;-1.690;2023-03-01T16:12:44;16.90;;;14.88;;
27612;SDS011;15036;48.094;-1.690;2023-03-01T16:15:16;20.17;;;15.23;;
27612;SDS011;15036;48.094;-1.690;2023-03-01T16:17:46;19.50;;;14.50;;
27612;SDS011;15036;48.094;-1.690;2023-03-01T16:20:12;17.60;;;14.38;;
27612;SDS011;15036;48.094;-1.690;2023-03-01T16:22:40;16.63;;;14.63;;
27612;SDS011;15036;48.094;-1.690;2023-03-01T16:25:10;17.45;;;13.68;;
27612;SDS011;15036;48.094;-1.690;2023-03-01T16:27:37;17.40;;;13.75;;
27612;SDS011;15036;48.094;-1.690;2023-03-01T16:30:02;15.00;;;13.40;;
27612;SDS011;15036;48.094;-1.690;2023-03-01T16:32:29;17.30;;;13.73;;